sensor_id;sensor_type;location;lat;lon;timestamp;temperature;humidity
60860;DHT22;46694;54.382;9.708;2022-10-12T00:00:20;12.20;99.90
60860;DHT22;46694;54.382;9.708;2022-10-12T00:02:59;12.20;99.90
60860;DHT22;46694;54.382;9.708;2022-10-12T00:05:41;12.20;99.90
60860;DHT22;46694;54.382;9.708;2022-10-12T00:08:21;12.20;99.90
60860;DHT22;46694;54.382;9.708;2022-10-12T00:11:01;12.10;99.90
60860;DHT22;46694;54.382;9.708;2022-10-12T00:13:42;12.10;99.90
60860;DHT22;46694;54.382;9.708;2022-10-12T00:16:22;12.10;99.90
60860;DHT22;46694;54.382;9.708;2022-10-12T00:19:02;12.10;99.90
60860;DHT22;46694;54.382;9.708;2022-10-12T00:21:42;12.00;99.90
60860;DHT22;46694;54.382;9.708;2022-10-12T00:24:22;12.00;99.90
60860;DHT22;46694;54.382;9.708;2022-10-12T00:27:02;12.00;99.90
60860;DHT22;46694;54.382;9.708;2022-10-12T00:29:41;12.00;99.90
60860;DHT22;46694;54.382;9.708;2022-10-12T00:32:21;12.00;99.90
60860;DHT22;46694;54.382;9.708;2022-10-12T00:35:01;12.00;99.90
60860;DHT22;46694;54.382;9.708;2022-10-12T00:37:40;12.00;99.90
60860;DHT22;46694;54.382;9.708;2022-10-12T00:40:20;12.00;99.90
60860;DHT22;46694;54.382;9.708;2022-10-12T00:43:00;12.00;99.90
60860;DHT22;46694;54.382;9.708;2022-10-12T00:45:40;12.00;99.90
60860;DHT22;46694;54.382;9.708;2022-10-12T00:48:20;12.00;99.90
60860;DHT22;46694;54.382;9.708;2022-10-12T00:51:01;12.00;99.90
60860;DHT22;46694;54.382;9.708;2022-10-12T00:53:45;12.00;99.90
60860;DHT22;46694;54.382;9.708;2022-10-12T00:56:30;12.00;99.90
60860;DHT22;46694;54.382;9.708;2022-10-12T00:59:17;12.00;99.90
60860;DHT22;46694;54.382;9.708;2022-10-12T01:01:59;12.00;99.90
60860;DHT22;46694;54.382;9.708;2022-10-12T01:04:39;12.00;99.90
60860;DHT22;46694;54.382;9.708;2022-10-12T01:07:19;12.00;99.90
60860;DHT22;46694;54.382;9.708;2022-10-12T01:09:58;11.90;99.90
60860;DHT22;46694;54.382;9.708;2022-10-12T01:12:40;12.00;99.90
60860;DHT22;46694;54.382;9.708;2022-10-12T01:15:22;11.90;99.90
60860;DHT22;46694;54.382;9.708;2022-10-12T01:18:23;11.90;99.90
60860;DHT22;46694;54.382;9.708;2022-10-12T01:21:25;11.90;99.90
60860;DHT22;46694;54.382;9.708;2022-10-12T01:24:33;11.90;99.90
60860;DHT22;46694;54.382;9.708;2022-10-12T01:27:54;11.90;99.90
60860;DHT22;46694;54.382;9.708;2022-10-12T01:30:47;11.90;99.90
60860;DHT22;46694;54.382;9.708;2022-10-12T01:33:37;11.90;99.90
60860;DHT22;46694;54.382;9.708;2022-10-12T01:36:36;12.00;99.90
60860;DHT22;46694;54.382;9.708;2022-10-12T01:42:31;12.00;99.90
60860;DHT22;46694;54.382;9.708;2022-10-12T01:45:15;12.00;99.90
60860;DHT22;46694;54.382;9.708;2022-10-12T01:47:56;12.00;99.90
60860;DHT22;46694;54.382;9.708;2022-10-12T01:53:52;12.00;99.90
60860;DHT22;46694;54.382;9.708;2022-10-12T01:56:46;12.00;99.90
60860;DHT22;46694;54.382;9.708;2022-10-12T02:03:15;11.90;99.90
60860;DHT22;46694;54.382;9.708;2022-10-12T02:06:04;11.90;99.90
60860;DHT22;46694;54.382;9.708;2022-10-12T02:09:06;12.00;99.90
60860;DHT22;46694;54.382;9.708;2022-10-12T02:11:51;12.00;99.90
60860;DHT22;46694;54.382;9.708;2022-10-12T02:14:37;11.90;99.90
60860;DHT22;46694;54.382;9.708;2022-10-12T02:17:20;11.90;99.90
60860;DHT22;46694;54.382;9.708;2022-10-12T02:20:03;11.90;99.90
60860;DHT22;46694;54.382;9.708;2022-10-12T02:22:46;11.90;99.90
60860;DHT22;46694;54.382;9.708;2022-10-12T02:25:27;11.90;99.90
60860;DHT22;46694;54.382;9.708;2022-10-12T02:28:13;11.90;99.90
60860;DHT22;46694;54.382;9.708;2022-10-12T02:31:55;11.80;99.90
60860;DHT22;46694;54.382;9.708;2022-10-12T02:34:37;11.80;99.90
60860;DHT22;46694;54.382;9.708;2022-10-12T02:37:35;11.80;99.90
60860;DHT22;46694;54.382;9.708;2022-10-12T02:43:40;11.80;99.90
60860;DHT22;46694;54.382;9.708;2022-10-12T02:46:23;11.70;99.90
60860;DHT22;46694;54.382;9.708;2022-10-12T02:49:05;11.70;99.90
60860;DHT22;46694;54.382;9.708;2022-10-12T02:51:45;11.70;99.90
60860;DHT22;46694;54.382;9.708;2022-10-12T02:54:25;11.70;99.90
60860;DHT22;46694;54.382;9.708;2022-10-12T02:57:04;11.60;99.90
60860;DHT22;46694;54.382;9.708;2022-10-12T02:59:44;11.60;99.90
60860;DHT22;46694;54.382;9.708;2022-10-12T03:02:24;11.60;99.90
60860;DHT22;46694;54.382;9.708;2022-10-12T03:05:04;11.50;99.90
60860;DHT22;46694;54.382;9.708;2022-10-12T03:07:44;11.40;99.90
60860;DHT22;46694;54.382;9.708;2022-10-12T03:10:24;11.40;99.90
60860;DHT22;46694;54.382;9.708;2022-10-12T03:13:03;11.30;99.90
60860;DHT22;46694;54.382;9.708;2022-10-12T03:15:43;11.30;99.90
60860;DHT22;46694;54.382;9.708;2022-10-12T03:18:22;11.20;99.90
60860;DHT22;46694;54.382;9.708;2022-10-12T03:21:02;11.10;99.90
60860;DHT22;46694;54.382;9.708;2022-10-12T03:23:42;11.10;99.90
60860;DHT22;46694;54.382;9.708;2022-10-12T03:26:22;11.00;99.90
60860;DHT22;46694;54.382;9.708;2022-10-12T03:29:01;11.00;99.90
60860;DHT22;46694;54.382;9.708;2022-10-12T03:31:41;10.90;99.90
60860;DHT22;46694;54.382;9.708;2022-10-12T03:34:20;10.90;99.90
60860;DHT22;46694;54.382;9.708;2022-10-12T03:37:00;10.80;99.90
60860;DHT22;46694;54.382;9.708;2022-10-12T03:39:40;10.80;99.90
60860;DHT22;46694;54.382;9.708;2022-10-12T03:42:19;10.70;99.90
60860;DHT22;46694;54.382;9.708;2022-10-12T03:44:59;10.70;99.90
60860;DHT22;46694;54.382;9.708;2022-10-12T03:47:38;10.70;99.90
60860;DHT22;46694;54.382;9.708;2022-10-12T03:50:18;10.70;99.90
60860;DHT22;46694;54.382;9.708;2022-10-12T03:52:57;10.60;99.90
60860;DHT22;46694;54.382;9.708;2022-10-12T03:55:37;10.60;99.90
60860;DHT22;46694;54.382;9.708;2022-10-12T03:58:16;10.60;99.90
60860;DHT22;46694;54.382;9.708;2022-10-12T04:00:56;10.50;99.90
60860;DHT22;46694;54.382;9.708;2022-10-12T04:03:36;10.50;99.90
60860;DHT22;46694;54.382;9.708;2022-10-12T04:06:16;10.50;99.90
60860;DHT22;46694;54.382;9.708;2022-10-12T04:08:56;10.40;99.90
60860;DHT22;46694;54.382;9.708;2022-10-12T04:11:35;10.40;99.90
60860;DHT22;46694;54.382;9.708;2022-10-12T04:14:15;10.30;99.90
60860;DHT22;46694;54.382;9.708;2022-10-12T04:16:55;10.30;99.90
60860;DHT22;46694;54.382;9.708;2022-10-12T04:19:34;10.20;99.90
60860;DHT22;46694;54.382;9.708;2022-10-12T04:22:14;10.20;99.90
60860;DHT22;46694;54.382;9.708;2022-10-12T04:24:53;10.20;99.90
60860;DHT22;46694;54.382;9.708;2022-10-12T04:27:33;10.20;99.90
60860;DHT22;46694;54.382;9.708;2022-10-12T04:30:13;10.20;99.90
60860;DHT22;46694;54.382;9.708;2022-10-12T04:32:52;10.20;99.90
60860;DHT22;46694;54.382;9.708;2022-10-12T04:35:32;10.20;99.90
60860;DHT22;46694;54.382;9.708;2022-10-12T04:38:12;10.20;99.90
60860;DHT22;46694;54.382;9.708;2022-10-12T04:40:52;10.20;99.90
60860;DHT22;46694;54.382;9.708;2022-10-12T04:43:31;10.20;99.90
60860;DHT22;46694;54.382;9.708;2022-10-12T04:46:11;10.20;99.90
60860;DHT22;46694;54.382;9.708;2022-10-12T04:48:51;10.20;99.90
60860;DHT22;46694;54.382;9.708;2022-10-12T04:51:30;10.10;99.90
60860;DHT22;46694;54.382;9.708;2022-10-12T04:54:10;10.10;99.90
60860;DHT22;46694;54.382;9.708;2022-10-12T04:56:49;10.10;99.90
60860;DHT22;46694;54.382;9.708;2022-10-12T04:59:29;10.10;99.90
60860;DHT22;46694;54.382;9.708;2022-10-12T05:02:08;10.00;99.90
60860;DHT22;46694;54.382;9.708;2022-10-12T05:04:48;10.00;99.90
60860;DHT22;46694;54.382;9.708;2022-10-12T05:07:28;10.00;99.90
60860;DHT22;46694;54.382;9.708;2022-10-12T05:10:08;10.00;99.90
60860;DHT22;46694;54.382;9.708;2022-10-12T05:12:47;9.90;99.90
60860;DHT22;46694;54.382;9.708;2022-10-12T05:15:27;9.90;99.90
60860;DHT22;46694;54.382;9.708;2022-10-12T05:18:06;9.80;99.90
60860;DHT22;46694;54.382;9.708;2022-10-12T05:20:46;9.80;99.90
60860;DHT22;46694;54.382;9.708;2022-10-12T05:23:26;9.70;99.90
60860;DHT22;46694;54.382;9.708;2022-10-12T05:26:05;9.70;99.90
60860;DHT22;46694;54.382;9.708;2022-10-12T05:28:45;9.60;99.90
60860;DHT22;46694;54.382;9.708;2022-10-12T05:31:24;9.60;99.90
60860;DHT22;46694;54.382;9.708;2022-10-12T05:34:04;9.60;99.90
60860;DHT22;46694;54.382;9.708;2022-10-12T05:36:44;9.50;99.90
60860;DHT22;46694;54.382;9.708;2022-10-12T05:39:24;9.50;99.90
60860;DHT22;46694;54.382;9.708;2022-10-12T05:42:03;9.50;99.90
60860;DHT22;46694;54.382;9.708;2022-10-12T05:44:43;9.50;99.90
60860;DHT22;46694;54.382;9.708;2022-10-12T05:47:22;9.50;99.90
60860;DHT22;46694;54.382;9.708;2022-10-12T05:50:03;9.40;99.90
60860;DHT22;46694;54.382;9.708;2022-10-12T05:52:43;9.40;99.90
60860;DHT22;46694;54.382;9.708;2022-10-12T05:55:23;9.40;99.90
60860;DHT22;46694;54.382;9.708;2022-10-12T05:58:02;9.40;99.90
60860;DHT22;46694;54.382;9.708;2022-10-12T06:00:41;9.40;99.90
60860;DHT22;46694;54.382;9.708;2022-10-12T06:03:21;9.40;99.90
60860;DHT22;46694;54.382;9.708;2022-10-12T06:06:01;9.40;99.90
60860;DHT22;46694;54.382;9.708;2022-10-12T06:08:41;9.40;99.90
60860;DHT22;46694;54.382;9.708;2022-10-12T06:11:21;9.40;99.90
60860;DHT22;46694;54.382;9.708;2022-10-12T06:14:00;9.40;99.90
60860;DHT22;46694;54.382;9.708;2022-10-12T06:16:40;9.40;99.90
60860;DHT22;46694;54.382;9.708;2022-10-12T06:19:20;9.30;99.90
60860;DHT22;46694;54.382;9.708;2022-10-12T06:21:59;9.20;99.90
60860;DHT22;46694;54.382;9.708;2022-10-12T06:24:39;9.20;99.90
60860;DHT22;46694;54.382;9.708;2022-10-12T06:27:18;9.20;99.90
60860;DHT22;46694;54.382;9.708;2022-10-12T06:29:58;9.20;99.90
60860;DHT22;46694;54.382;9.708;2022-10-12T06:32:38;9.20;99.90
60860;DHT22;46694;54.382;9.708;2022-10-12T06:35:17;9.20;99.90
60860;DHT22;46694;54.382;9.708;2022-10-12T06:37:57;9.30;99.90
60860;DHT22;46694;54.382;9.708;2022-10-12T06:40:37;9.30;99.90
60860;DHT22;46694;54.382;9.708;2022-10-12T06:43:16;9.20;99.90
60860;DHT22;46694;54.382;9.708;2022-10-12T06:46:00;9.30;99.90
60860;DHT22;46694;54.382;9.708;2022-10-12T06:48:40;9.30;99.90
60860;DHT22;46694;54.382;9.708;2022-10-12T06:51:19;9.30;99.90
60860;DHT22;46694;54.382;9.708;2022-10-12T06:53:59;9.30;99.90
60860;DHT22;46694;54.382;9.708;2022-10-12T06:56:38;9.40;99.90
60860;DHT22;46694;54.382;9.708;2022-10-12T06:59:18;9.50;99.90
60860;DHT22;46694;54.382;9.708;2022-10-12T07:01:57;9.60;99.90
60860;DHT22;46694;54.382;9.708;2022-10-12T07:04:37;9.70;99.90
60860;DHT22;46694;54.382;9.708;2022-10-12T07:07:17;9.80;99.90
60860;DHT22;46694;54.382;9.708;2022-10-12T07:09:57;10.00;99.90
60860;DHT22;46694;54.382;9.708;2022-10-12T07:12:37;10.10;99.90
60860;DHT22;46694;54.382;9.708;2022-10-12T07:15:17;10.20;99.90
60860;DHT22;46694;54.382;9.708;2022-10-12T07:17:56;10.30;99.90
60860;DHT22;46694;54.382;9.708;2022-10-12T07:20:36;10.50;99.90
60860;DHT22;46694;54.382;9.708;2022-10-12T07:23:18;10.60;99.90
60860;DHT22;46694;54.382;9.708;2022-10-12T07:25:58;10.70;99.90
60860;DHT22;46694;54.382;9.708;2022-10-12T07:28:37;10.80;99.90
60860;DHT22;46694;54.382;9.708;2022-10-12T07:31:17;11.00;99.90
60860;DHT22;46694;54.382;9.708;2022-10-12T07:33:56;11.20;99.90
60860;DHT22;46694;54.382;9.708;2022-10-12T07:36:36;11.40;99.90
60860;DHT22;46694;54.382;9.708;2022-10-12T07:39:16;11.60;99.90
60860;DHT22;46694;54.382;9.708;2022-10-12T07:41:55;11.80;99.90
60860;DHT22;46694;54.382;9.708;2022-10-12T07:44:35;12.00;99.90
60860;DHT22;46694;54.382;9.708;2022-10-12T07:47:14;12.20;99.90
60860;DHT22;46694;54.382;9.708;2022-10-12T07:49:55;12.40;99.90
60860;DHT22;46694;54.382;9.708;2022-10-12T07:52:35;12.60;99.90
60860;DHT22;46694;54.382;9.708;2022-10-12T07:55:15;12.80;99.90
60860;DHT22;46694;54.382;9.708;2022-10-12T07:57:54;12.90;99.90
60860;DHT22;46694;54.382;9.708;2022-10-12T08:00:34;13.10;99.90
60860;DHT22;46694;54.382;9.708;2022-10-12T08:03:13;13.30;99.90
60860;DHT22;46694;54.382;9.708;2022-10-12T08:05:54;13.50;99.90
60860;DHT22;46694;54.382;9.708;2022-10-12T08:08:34;13.80;99.90
60860;DHT22;46694;54.382;9.708;2022-10-12T08:11:14;14.00;99.90
60860;DHT22;46694;54.382;9.708;2022-10-12T08:13:53;14.20;99.90
60860;DHT22;46694;54.382;9.708;2022-10-12T08:16:33;14.40;99.90
60860;DHT22;46694;54.382;9.708;2022-10-12T08:19:13;14.60;99.90
60860;DHT22;46694;54.382;9.708;2022-10-12T08:21:53;14.80;99.90
60860;DHT22;46694;54.382;9.708;2022-10-12T08:24:34;14.90;99.90
60860;DHT22;46694;54.382;9.708;2022-10-12T08:27:13;15.00;99.90
60860;DHT22;46694;54.382;9.708;2022-10-12T08:29:53;15.00;99.90
60860;DHT22;46694;54.382;9.708;2022-10-12T08:32:33;15.20;99.90
60860;DHT22;46694;54.382;9.708;2022-10-12T08:35:13;15.30;99.90
60860;DHT22;46694;54.382;9.708;2022-10-12T08:37:53;15.40;99.90
60860;DHT22;46694;54.382;9.708;2022-10-12T08:40:35;15.50;99.90
60860;DHT22;46694;54.382;9.708;2022-10-12T08:46:03;15.80;99.90
60860;DHT22;46694;54.382;9.708;2022-10-12T08:49:02;16.10;99.90
60860;DHT22;46694;54.382;9.708;2022-10-12T08:51:49;16.30;99.90
60860;DHT22;46694;54.382;9.708;2022-10-12T08:54:37;16.40;99.90
60860;DHT22;46694;54.382;9.708;2022-10-12T08:57:18;16.50;99.90
60860;DHT22;46694;54.382;9.708;2022-10-12T08:59:58;16.60;99.90
60860;DHT22;46694;54.382;9.708;2022-10-12T09:03:03;16.70;99.90
60860;DHT22;46694;54.382;9.708;2022-10-12T09:06:43;16.80;99.90
60860;DHT22;46694;54.382;9.708;2022-10-12T09:09:36;16.90;99.90
60860;DHT22;46694;54.382;9.708;2022-10-12T09:16:05;17.20;99.90
60860;DHT22;46694;54.382;9.708;2022-10-12T09:19:11;17.30;99.40
60860;DHT22;46694;54.382;9.708;2022-10-12T09:21:56;17.50;99.80
60860;DHT22;46694;54.382;9.708;2022-10-12T09:24:36;17.70;99.10
60860;DHT22;46694;54.382;9.708;2022-10-12T09:27:18;17.80;99.00
60860;DHT22;46694;54.382;9.708;2022-10-12T09:30:02;18.00;98.60
60860;DHT22;46694;54.382;9.708;2022-10-12T09:32:59;18.10;98.30
60860;DHT22;46694;54.382;9.708;2022-10-12T09:35:58;18.20;98.10
60860;DHT22;46694;54.382;9.708;2022-10-12T09:38:38;18.40;97.70
60860;DHT22;46694;54.382;9.708;2022-10-12T09:41:39;18.40;97.20
60860;DHT22;46694;54.382;9.708;2022-10-12T09:50:04;18.50;96.00
60860;DHT22;46694;54.382;9.708;2022-10-12T09:52:45;18.60;96.00
60860;DHT22;46694;54.382;9.708;2022-10-12T09:55:27;18.60;95.90
60860;DHT22;46694;54.382;9.708;2022-10-12T09:58:16;18.70;95.60
60860;DHT22;46694;54.382;9.708;2022-10-12T10:01:18;18.70;94.90
60860;DHT22;46694;54.382;9.708;2022-10-12T10:06:47;18.50;94.50
60860;DHT22;46694;54.382;9.708;2022-10-12T10:09:31;18.40;94.60
60860;DHT22;46694;54.382;9.708;2022-10-12T10:12:25;18.50;94.70
60860;DHT22;46694;54.382;9.708;2022-10-12T10:15:21;18.50;94.60
60860;DHT22;46694;54.382;9.708;2022-10-12T10:21:22;18.70;94.80
60860;DHT22;46694;54.382;9.708;2022-10-12T10:24:27;18.90;94.60
60860;DHT22;46694;54.382;9.708;2022-10-12T10:27:36;18.90;93.90
60860;DHT22;46694;54.382;9.708;2022-10-12T10:33:13;18.80;93.90
60860;DHT22;46694;54.382;9.708;2022-10-12T10:35:58;18.80;93.70
60860;DHT22;46694;54.382;9.708;2022-10-12T10:39:02;18.70;93.80
60860;DHT22;46694;54.382;9.708;2022-10-12T10:41:43;18.70;93.80
60860;DHT22;46694;54.382;9.708;2022-10-12T10:44:29;18.60;93.70
60860;DHT22;46694;54.382;9.708;2022-10-12T10:47:11;18.50;94.20
60860;DHT22;46694;54.382;9.708;2022-10-12T10:49:54;18.50;94.10
60860;DHT22;46694;54.382;9.708;2022-10-12T10:52:54;18.50;93.80
60860;DHT22;46694;54.382;9.708;2022-10-12T10:56:00;18.50;94.00
60860;DHT22;46694;54.382;9.708;2022-10-12T10:58:43;18.50;94.00
60860;DHT22;46694;54.382;9.708;2022-10-12T11:01:47;18.50;93.90
60860;DHT22;46694;54.382;9.708;2022-10-12T11:04:31;18.50;93.90
60860;DHT22;46694;54.382;9.708;2022-10-12T11:10:36;18.50;93.60
60860;DHT22;46694;54.382;9.708;2022-10-12T11:13:28;18.50;93.40
60860;DHT22;46694;54.382;9.708;2022-10-12T11:19:46;18.50;93.50
60860;DHT22;46694;54.382;9.708;2022-10-12T11:23:17;18.50;93.80
60860;DHT22;46694;54.382;9.708;2022-10-12T11:26:12;18.70;93.50
60860;DHT22;46694;54.382;9.708;2022-10-12T11:28:58;18.50;93.40
60860;DHT22;46694;54.382;9.708;2022-10-12T11:31:59;18.40;93.40
60860;DHT22;46694;54.382;9.708;2022-10-12T11:34:55;18.40;93.40
60860;DHT22;46694;54.382;9.708;2022-10-12T11:37:41;18.20;93.00
60860;DHT22;46694;54.382;9.708;2022-10-12T11:40:31;18.10;93.00
60860;DHT22;46694;54.382;9.708;2022-10-12T11:43:21;17.90;93.10
60860;DHT22;46694;54.382;9.708;2022-10-12T11:46:05;17.90;93.40
60860;DHT22;46694;54.382;9.708;2022-10-12T11:48:55;17.90;93.60
60860;DHT22;46694;54.382;9.708;2022-10-12T11:51:42;17.90;93.30
60860;DHT22;46694;54.382;9.708;2022-10-12T11:57:21;17.90;92.80
60860;DHT22;46694;54.382;9.708;2022-10-12T12:00:18;17.90;92.20
60860;DHT22;46694;54.382;9.708;2022-10-12T12:09:33;17.80;92.50
60860;DHT22;46694;54.382;9.708;2022-10-12T12:12:27;18.00;92.50
60860;DHT22;46694;54.382;9.708;2022-10-12T12:15:19;18.00;91.90
60860;DHT22;46694;54.382;9.708;2022-10-12T12:23:55;17.70;91.90
60860;DHT22;46694;54.382;9.708;2022-10-12T12:26:35;17.60;91.90
60860;DHT22;46694;54.382;9.708;2022-10-12T12:29:25;17.70;92.40
60860;DHT22;46694;54.382;9.708;2022-10-12T12:32:07;17.80;92.30
60860;DHT22;46694;54.382;9.708;2022-10-12T12:34:55;17.90;92.10
60860;DHT22;46694;54.382;9.708;2022-10-12T12:37:35;18.10;91.90
60860;DHT22;46694;54.382;9.708;2022-10-12T12:40:20;18.00;91.80
60860;DHT22;46694;54.382;9.708;2022-10-12T12:46:09;17.70;92.00
60860;DHT22;46694;54.382;9.708;2022-10-12T12:51:51;17.70;92.20
60860;DHT22;46694;54.382;9.708;2022-10-12T12:54:34;17.80;92.10
60860;DHT22;46694;54.382;9.708;2022-10-12T13:01:21;17.80;92.00
60860;DHT22;46694;54.382;9.708;2022-10-12T13:19:45;17.60;91.90
60860;DHT22;46694;54.382;9.708;2022-10-12T13:22:30;17.50;91.60
60860;DHT22;46694;54.382;9.708;2022-10-12T13:25:18;17.30;91.70
60860;DHT22;46694;54.382;9.708;2022-10-12T13:28:09;17.30;91.80
60860;DHT22;46694;54.382;9.708;2022-10-12T13:34:21;17.20;91.50
60860;DHT22;46694;54.382;9.708;2022-10-12T13:37:10;17.10;91.30
60860;DHT22;46694;54.382;9.708;2022-10-12T13:39:51;17.10;91.40
60860;DHT22;46694;54.382;9.708;2022-10-12T13:42:33;17.10;91.00
60860;DHT22;46694;54.382;9.708;2022-10-12T13:45:15;17.10;90.90
60860;DHT22;46694;54.382;9.708;2022-10-12T13:48:02;17.00;90.90
60860;DHT22;46694;54.382;9.708;2022-10-12T13:51:18;17.00;90.70
60860;DHT22;46694;54.382;9.708;2022-10-12T13:54:16;16.90;90.60
60860;DHT22;46694;54.382;9.708;2022-10-12T13:57:03;16.90;90.80
60860;DHT22;46694;54.382;9.708;2022-10-12T14:02:41;16.80;91.10
60860;DHT22;46694;54.382;9.708;2022-10-12T14:05:25;16.80;91.10
60860;DHT22;46694;54.382;9.708;2022-10-12T14:08:12;16.70;91.10
60860;DHT22;46694;54.382;9.708;2022-10-12T14:10:55;16.70;91.00
60860;DHT22;46694;54.382;9.708;2022-10-12T14:13:36;16.70;90.90
60860;DHT22;46694;54.382;9.708;2022-10-12T14:16:16;16.60;91.00
60860;DHT22;46694;54.382;9.708;2022-10-12T14:19:16;16.60;91.00
60860;DHT22;46694;54.382;9.708;2022-10-12T14:21:59;16.50;91.00
60860;DHT22;46694;54.382;9.708;2022-10-12T14:24:39;16.50;91.10
60860;DHT22;46694;54.382;9.708;2022-10-12T14:27:54;16.40;91.10
60860;DHT22;46694;54.382;9.708;2022-10-12T14:30:51;16.40;91.20
60860;DHT22;46694;54.382;9.708;2022-10-12T14:33:31;16.30;91.30
60860;DHT22;46694;54.382;9.708;2022-10-12T14:36:24;16.20;91.40
60860;DHT22;46694;54.382;9.708;2022-10-12T14:39:12;16.20;91.50
60860;DHT22;46694;54.382;9.708;2022-10-12T14:41:52;16.20;91.80
60860;DHT22;46694;54.382;9.708;2022-10-12T14:44:41;16.10;91.90
60860;DHT22;46694;54.382;9.708;2022-10-12T14:50:07;16.00;92.40
60860;DHT22;46694;54.382;9.708;2022-10-12T14:52:50;16.00;92.70
60860;DHT22;46694;54.382;9.708;2022-10-12T14:55:32;15.90;92.70
60860;DHT22;46694;54.382;9.708;2022-10-12T14:58:14;15.90;92.80
60860;DHT22;46694;54.382;9.708;2022-10-12T15:00:56;15.80;92.80
60860;DHT22;46694;54.382;9.708;2022-10-12T15:03:35;15.80;92.80
60860;DHT22;46694;54.382;9.708;2022-10-12T15:06:16;15.70;92.90
60860;DHT22;46694;54.382;9.708;2022-10-12T15:08:55;15.70;92.90
60860;DHT22;46694;54.382;9.708;2022-10-12T15:11:35;15.60;93.00
60860;DHT22;46694;54.382;9.708;2022-10-12T15:14:14;15.60;93.10
60860;DHT22;46694;54.382;9.708;2022-10-12T15:16:54;15.50;93.20
60860;DHT22;46694;54.382;9.708;2022-10-12T15:19:36;15.50;93.40
60860;DHT22;46694;54.382;9.708;2022-10-12T15:22:21;15.40;93.50
60860;DHT22;46694;54.382;9.708;2022-10-12T15:28:26;15.40;94.00
60860;DHT22;46694;54.382;9.708;2022-10-12T15:31:11;15.40;94.20
60860;DHT22;46694;54.382;9.708;2022-10-12T15:33:52;15.30;94.90
60860;DHT22;46694;54.382;9.708;2022-10-12T15:36:31;15.30;94.80
60860;DHT22;46694;54.382;9.708;2022-10-12T15:39:11;15.30;95.10
60860;DHT22;46694;54.382;9.708;2022-10-12T15:41:53;15.30;95.20
60860;DHT22;46694;54.382;9.708;2022-10-12T15:44:38;15.30;95.40
60860;DHT22;46694;54.382;9.708;2022-10-12T15:47:19;15.20;95.40
60860;DHT22;46694;54.382;9.708;2022-10-12T15:49:58;15.20;95.40
60860;DHT22;46694;54.382;9.708;2022-10-12T15:52:38;15.20;95.50
60860;DHT22;46694;54.382;9.708;2022-10-12T15:55:21;15.20;95.50
60860;DHT22;46694;54.382;9.708;2022-10-12T15:58:02;15.20;95.60
60860;DHT22;46694;54.382;9.708;2022-10-12T16:00:42;15.20;95.70
60860;DHT22;46694;54.382;9.708;2022-10-12T16:03:21;15.20;95.90
60860;DHT22;46694;54.382;9.708;2022-10-12T16:06:01;15.20;96.10
60860;DHT22;46694;54.382;9.708;2022-10-12T16:08:40;15.20;96.40
60860;DHT22;46694;54.382;9.708;2022-10-12T16:11:20;15.10;96.60
60860;DHT22;46694;54.382;9.708;2022-10-12T16:13:59;15.10;96.70
60860;DHT22;46694;54.382;9.708;2022-10-12T16:16:40;15.10;96.80
60860;DHT22;46694;54.382;9.708;2022-10-12T16:19:19;15.10;97.00
60860;DHT22;46694;54.382;9.708;2022-10-12T16:21:59;15.00;97.20
60860;DHT22;46694;54.382;9.708;2022-10-12T16:24:41;14.90;97.40
60860;DHT22;46694;54.382;9.708;2022-10-12T16:27:20;14.90;97.70
60860;DHT22;46694;54.382;9.708;2022-10-12T16:30:00;14.80;97.90
60860;DHT22;46694;54.382;9.708;2022-10-12T16:32:40;14.70;98.10
60860;DHT22;46694;54.382;9.708;2022-10-12T16:35:20;14.50;98.30
60860;DHT22;46694;54.382;9.708;2022-10-12T16:38:00;14.50;98.60
60860;DHT22;46694;54.382;9.708;2022-10-12T16:40:42;14.30;98.80
60860;DHT22;46694;54.382;9.708;2022-10-12T16:43:22;14.20;99.10
60860;DHT22;46694;54.382;9.708;2022-10-12T16:46:03;14.20;99.30
60860;DHT22;46694;54.382;9.708;2022-10-12T16:48:42;14.10;99.50
60860;DHT22;46694;54.382;9.708;2022-10-12T16:51:22;14.00;99.60
60860;DHT22;46694;54.382;9.708;2022-10-12T16:54:02;14.00;99.70
60860;DHT22;46694;54.382;9.708;2022-10-12T16:56:41;13.90;99.90
60860;DHT22;46694;54.382;9.708;2022-10-12T16:59:21;13.90;99.90
60860;DHT22;46694;54.382;9.708;2022-10-12T17:02:01;13.80;99.90
60860;DHT22;46694;54.382;9.708;2022-10-12T17:04:41;13.70;99.90
60860;DHT22;46694;54.382;9.708;2022-10-12T17:07:20;13.70;99.90
60860;DHT22;46694;54.382;9.708;2022-10-12T17:10:00;13.60;99.90
60860;DHT22;46694;54.382;9.708;2022-10-12T17:12:39;13.60;99.90
60860;DHT22;46694;54.382;9.708;2022-10-12T17:15:19;13.50;99.90
60860;DHT22;46694;54.382;9.708;2022-10-12T17:17:58;13.40;99.90
60860;DHT22;46694;54.382;9.708;2022-10-12T17:20:38;13.30;99.90
60860;DHT22;46694;54.382;9.708;2022-10-12T17:23:18;13.20;99.90
60860;DHT22;46694;54.382;9.708;2022-10-12T17:25:58;13.10;99.90
60860;DHT22;46694;54.382;9.708;2022-10-12T17:28:38;13.10;99.90
60860;DHT22;46694;54.382;9.708;2022-10-12T17:31:18;12.90;99.90
60860;DHT22;46694;54.382;9.708;2022-10-12T17:33:58;12.90;99.90
60860;DHT22;46694;54.382;9.708;2022-10-12T17:36:38;12.90;99.90
60860;DHT22;46694;54.382;9.708;2022-10-12T17:39:18;12.80;99.90
60860;DHT22;46694;54.382;9.708;2022-10-12T17:41:58;12.90;99.90
60860;DHT22;46694;54.382;9.708;2022-10-12T17:44:37;12.80;99.90
60860;DHT22;46694;54.382;9.708;2022-10-12T17:47:17;12.80;99.90
60860;DHT22;46694;54.382;9.708;2022-10-12T17:49:57;12.70;99.90
60860;DHT22;46694;54.382;9.708;2022-10-12T17:52:37;12.70;99.90
60860;DHT22;46694;54.382;9.708;2022-10-12T17:55:17;12.60;99.90
60860;DHT22;46694;54.382;9.708;2022-10-12T17:57:57;12.60;99.90
60860;DHT22;46694;54.382;9.708;2022-10-12T18:00:36;12.60;99.90
60860;DHT22;46694;54.382;9.708;2022-10-12T18:03:16;12.50;99.90
60860;DHT22;46694;54.382;9.708;2022-10-12T18:06:04;12.50;99.90
60860;DHT22;46694;54.382;9.708;2022-10-12T18:08:45;12.40;99.90
60860;DHT22;46694;54.382;9.708;2022-10-12T18:11:25;12.30;99.90
60860;DHT22;46694;54.382;9.708;2022-10-12T18:14:06;12.30;99.90
60860;DHT22;46694;54.382;9.708;2022-10-12T18:16:46;12.20;99.90
60860;DHT22;46694;54.382;9.708;2022-10-12T18:19:26;12.20;99.90
60860;DHT22;46694;54.382;9.708;2022-10-12T18:22:05;12.10;99.90
60860;DHT22;46694;54.382;9.708;2022-10-12T18:24:45;12.10;99.90
60860;DHT22;46694;54.382;9.708;2022-10-12T18:27:26;12.10;99.90
60860;DHT22;46694;54.382;9.708;2022-10-12T18:30:06;12.00;99.90
60860;DHT22;46694;54.382;9.708;2022-10-12T18:32:46;12.00;99.90
60860;DHT22;46694;54.382;9.708;2022-10-12T18:35:26;11.90;99.90
60860;DHT22;46694;54.382;9.708;2022-10-12T18:38:06;11.90;99.90
60860;DHT22;46694;54.382;9.708;2022-10-12T18:40:46;11.90;99.90
60860;DHT22;46694;54.382;9.708;2022-10-12T18:43:28;11.90;99.90
60860;DHT22;46694;54.382;9.708;2022-10-12T18:46:13;11.90;99.90
60860;DHT22;46694;54.382;9.708;2022-10-12T18:48:53;11.80;99.90